KLAM

Los Alamos Airport

Los Alamos, New Mexico, USA

KLAM 110855Z AUTO 00000KT 10SM SCT090 02/M20 A3049 RMK AO2 T00151198

Observed Flight Rules
Dec-11 @ 08:55 UTC (30 minutes ago) Visual Flight Rules
Wind Visibility Clouds
Calm 10 miles
  • Scattered at 9,000' AGL
Temperatures Readings
Current 2°C / 36°F
Dewpoint -20°C / -4°F
Humidity 18%
Altimeter 30.49" Hg
Pressure 1033 hPa
Elevation 2179
Observed Flight Rules
Dec-11 @ 08:55 UTC
(30 minutes ago)
VFR
Wind Visibility
Calm 10 miles
Clouds
  • Scattered at 9,000' AGL
Temperature Dewpoint
2°C / 36°F -20°C / -4°F
Humidity Altimeter Pressure
18% 30.49" Hg 1033 hPa